»·PEaware :: ASA1021 KLAS-KSNA

ASA1021 :: KLAS-KSNA

FLIGHT INFORMATION

Flight Status: Arrived
Operator:
Alaska Airlines
More flights by this operator :: More flights under this callsign
Pilot: Andrew C. (28419)
Aircraft: BOEING 737-800
(B738)
More flights by this aircraft type
Origin: KLAS McCarran Intl
United States
Destination: KSNA John Wayne-Orange Co
United States
More flights between these airports :: More routes between these airports
Route: +BOACH8 WHIGG FEYLA DSNEE4
File this flight plan on PilotEdge
Remarks: RMK / SIMBRIEF
Altitude:
(Current/Filed)
28,000ft
Speed:
(Current/Filed)
440kts
Departed: 14-Sep-20 06:28 PM
Arrived: 14-Sep-20 07:09 PM
Distance/Time
Traveled:
197nm/0:41
Distance/Time
To Go:
Arrived

Flight Plot

Page will automatically refresh every two minutes.

Flight plan parsing failed; only flown route is shown


Map Options




Map Legend


Flown Route
Filed Route
Departure Airport
Arrival Airport
Navaid (VOR, NDB)
Fix

Horizontal Profiles

Position Reports

Time Latitude Longitude Heading Altitude Ground
Speed
14-Sep-20 18:03 36.080234 -115.140637 94 2079ft 0kts
14-Sep-20 18:04 36.080234 -115.140637 94 2079ft 0kts
14-Sep-20 18:05 36.080234 -115.140638 94 2079ft 0kts
14-Sep-20 18:06 36.080234 -115.140638 94 2079ft 0kts
14-Sep-20 18:07 36.080234 -115.140638 94 2079ft 0kts
14-Sep-20 18:08 36.080234 -115.140638 94 2079ft 0kts
14-Sep-20 18:09 36.080234 -115.140638 94 2079ft 0kts
14-Sep-20 18:10 36.080234 -115.140638 94 2079ft 0kts
14-Sep-20 18:11 36.080234 -115.140638 94 2079ft 0kts
14-Sep-20 18:12 36.080234 -115.140638 94 2079ft 0kts
14-Sep-20 18:13 36.080234 -115.140638 94 2079ft 0kts
14-Sep-20 18:14 36.080234 -115.140638 94 2079ft 0kts
14-Sep-20 18:15 36.080234 -115.140638 94 2079ft 0kts
14-Sep-20 18:16 36.080234 -115.140638 94 2079ft 0kts
14-Sep-20 18:17 36.080243 -115.140778 94 2080ft 2kts
14-Sep-20 18:18 36.080372 -115.141493 140 2080ft 2kts
14-Sep-20 18:19 36.080648 -115.141598 181 2079ft 0kts
14-Sep-20 18:20 36.080641 -115.141598 181 2079ft 1kts
14-Sep-20 18:21 36.078808 -115.141570 181 2085ft 14kts
14-Sep-20 18:22 36.077635 -115.145174 275 2102ft 15kts
14-Sep-20 18:23 36.078022 -115.151013 271 2120ft 17kts
14-Sep-20 18:24 36.078028 -115.157050 270 2142ft 16kts
14-Sep-20 18:25 36.077498 -115.161269 183 2156ft 5kts
14-Sep-20 18:26 36.076976 -115.161290 181 2158ft 12kts
14-Sep-20 18:27 36.076364 -115.135758 89 2387ft 173kts
14-Sep-20 18:28 36.076588 -115.065351 90 4200ft 255kts
14-Sep-20 18:29 36.065710 -114.973215 121 7292ft 287kts
14-Sep-20 18:30 36.001670 -114.918414 172 10461ft 304kts
14-Sep-20 18:31 35.916772 -114.955925 221 12590ft 352kts
14-Sep-20 18:32 35.846389 -115.043073 224 15341ft 367kts
14-Sep-20 18:33 35.778518 -115.139829 231 17911ft 380kts
14-Sep-20 18:34 35.711069 -115.242304 231 20291ft 392kts
14-Sep-20 18:35 35.638697 -115.344240 228 22512ft 402kts
14-Sep-20 18:36 35.562685 -115.447736 230 24524ft 412kts
14-Sep-20 18:37 35.486199 -115.553197 230 26487ft 418kts
14-Sep-20 18:38 35.407314 -115.659559 229 27990ft 426kts
14-Sep-20 18:39 35.326718 -115.767865 229 28000ft 429kts
14-Sep-20 18:40 35.246546 -115.875403 229 28000ft 429kts
14-Sep-20 18:41 35.163984 -115.981364 228 28010ft 429kts
14-Sep-20 18:42 35.080982 -116.085527 228 28033ft 428kts
14-Sep-20 18:43 34.998315 -116.189376 228 28054ft 427kts
14-Sep-20 18:44 34.915889 -116.292713 228 28053ft 410kts
14-Sep-20 18:45 34.838362 -116.390375 228 28077ft 404kts
14-Sep-20 18:46 34.761869 -116.487682 228 27556ft 389kts
14-Sep-20 18:47 34.687319 -116.579566 222 25477ft 378kts
14-Sep-20 18:48 34.606666 -116.659472 220 23394ft 371kts
14-Sep-20 18:49 34.526713 -116.737647 219 21356ft 364kts
14-Sep-20 18:50 34.452759 -116.819256 224 19355ft 357kts
14-Sep-20 18:51 34.382051 -116.901371 223 17366ft 350kts
14-Sep-20 18:52 34.312253 -116.982084 223 15378ft 344kts
14-Sep-20 18:53 34.239262 -117.054052 211 14137ft 338kts
14-Sep-20 18:54 34.162881 -117.108035 204 13102ft 329kts
14-Sep-20 18:55 34.078163 -117.153841 203 13000ft 333kts
14-Sep-20 18:56 33.996794 -117.202271 218 11935ft 324kts
14-Sep-20 18:57 33.935853 -117.281302 227 10631ft 314kts
14-Sep-20 18:58 33.881561 -117.357742 227 9412ft 281kts
14-Sep-20 18:59 33.832398 -117.428108 234 8297ft 271kts
14-Sep-20 19:00 33.824629 -117.513232 276 7047ft 261kts
14-Sep-20 19:01 33.833222 -117.600043 269 5795ft 262kts
14-Sep-20 19:02 33.833041 -117.683013 268 4557ft 260kts
14-Sep-20 19:03 33.828993 -117.763455 241 3311ft 228kts
14-Sep-20 19:04 33.782041 -117.800687 208 2257ft 186kts
14-Sep-20 19:05 33.744199 -117.825371 207 1432ft 138kts
14-Sep-20 19:06 33.710196 -117.846974 207 790ft 140kts
14-Sep-20 19:07 33.677178 -117.867891 207 66ft 78kts
14-Sep-20 19:08 33.669503 -117.871989 150 66ft 11kts
14-Sep-20 19:09 33.670821 -117.869170 40 66ft 15kts
14-Sep-20 19:10 33.674701 -117.866113 26 66ft 15kts
14-Sep-20 19:11 33.675724 -117.864652 117 66ft 0kts
14-Sep-20 19:12 33.675724 -117.864652 117 66ft 0kts

Navigation Log

Ident Type
Flight plan parsing failed, navigation log unavailable